Rimbey, Canada
Current Conditions -  °F | °C
As of 7:00 AM on Saturday 22 Nov 2014 (Local Time) from CYQF Reporting Station
Overcast Overcast  
Wind Chill: 28°   Ceiling: 9000
Heat Index: 28°   Visibility: 15mi
Dew Point: 27°   Wind: 0mph
Humidity: 93%   Direction: NA
Pressure: 29.03"   Gusts: NA
Location:  52.63°N, 114.22°W
Report Text: CYQF 221400Z 00000KT 15SM OVC090 M02/M03 A2903 RMK AC8 SLP866
Loading
Personal Weather Stations






























Interactive Weather Map New forecast layout! Learn more

10-Day Weather Forecast

Advertisements
Track Severe Weather on mobile